createdAt,value
2022-09-02T00:01:57.647Z,6.55
2022-09-02T00:04:28.232Z,6.60
2022-09-02T00:06:57.658Z,6.28
2022-09-02T00:09:27.592Z,6.70
2022-09-02T00:11:58.867Z,8.25
2022-09-02T00:14:32.035Z,6.20
2022-09-02T00:17:03.122Z,6.30
2022-09-02T00:19:33.388Z,7.50
2022-09-02T00:22:04.649Z,6.43
2022-09-02T00:24:34.400Z,6.35
2022-09-02T00:27:05.479Z,6.38
2022-09-02T00:29:34.883Z,6.43
2022-09-02T00:32:05.083Z,7.15
2022-09-02T00:34:34.307Z,6.63
2022-09-02T00:37:03.737Z,7.35
2022-09-02T00:39:33.111Z,7.57
2022-09-02T00:42:02.485Z,7.18
2022-09-02T00:44:34.014Z,6.43
2022-09-02T00:47:03.367Z,7.70
2022-09-02T00:49:36.109Z,8.52
2022-09-02T00:52:10.971Z,7.05
2022-09-02T00:54:48.552Z,7.00
2022-09-02T00:57:23.280Z,6.60
2022-09-02T01:00:09.383Z,7.03
2022-09-02T01:02:42.009Z,7.78
2022-09-02T01:05:15.937Z,6.97
2022-09-02T01:07:46.785Z,7.45
2022-09-02T01:10:21.562Z,7.68
2022-09-02T01:12:56.409Z,7.50
2022-09-02T01:15:29.024Z,8.57
2022-09-02T01:18:00.208Z,11.07
2022-09-02T01:20:29.803Z,7.70
2022-09-02T01:23:02.271Z,7.93
2022-09-02T01:25:34.633Z,7.30
2022-09-02T01:28:09.143Z,8.07
2022-09-02T01:30:42.162Z,9.13
2022-09-02T01:33:13.047Z,7.88
2022-09-02T01:35:42.390Z,8.90
2022-09-02T01:38:13.801Z,9.82
2022-09-02T01:40:44.127Z,7.40
2022-09-02T01:43:17.302Z,6.38
2022-09-02T01:45:52.589Z,9.13
2022-09-02T01:48:23.525Z,7.05
2022-09-02T01:50:58.600Z,14.48
2022-09-02T01:53:31.919Z,6.60
2022-09-02T01:56:02.045Z,6.82
2022-09-02T01:58:35.955Z,5.25
2022-09-02T02:01:07.983Z,8.38
2022-09-02T02:03:39.978Z,6.50
2022-09-02T02:06:15.044Z,11.82
2022-09-02T02:08:47.457Z,5.93
2022-09-02T02:11:21.385Z,6.22
2022-09-02T02:13:54.694Z,6.38
2022-09-02T02:16:24.235Z,7.20
2022-09-02T02:18:53.599Z,7.45
2022-09-02T02:21:23.083Z,7.10
2022-09-02T02:23:54.929Z,6.30
2022-09-02T02:26:24.619Z,6.95
2022-09-02T02:28:54.044Z,6.88
2022-09-02T02:31:24.542Z,5.88
2022-09-02T02:33:54.261Z,6.32
2022-09-02T02:36:23.923Z,6.07
2022-09-02T02:38:55.297Z,7.50
2022-09-02T02:41:25.720Z,5.95
2022-09-02T02:43:56.207Z,4.82
2022-09-02T02:46:27.006Z,5.70
2022-09-02T02:48:56.218Z,5.72
2022-09-02T02:51:25.416Z,7.32
2022-09-02T02:53:58.882Z,6.57
2022-09-02T02:56:30.416Z,6.50
2022-09-02T02:59:03.193Z,6.32
2022-09-02T03:01:35.567Z,6.88
2022-09-02T03:04:07.263Z,6.55
2022-09-02T03:06:36.814Z,6.88
2022-09-02T03:09:07.959Z,5.97
2022-09-02T03:11:40.857Z,6.55
2022-09-02T03:14:10.428Z,6.30
2022-09-02T03:16:40.067Z,6.43
2022-09-02T03:19:09.757Z,5.28
2022-09-02T03:21:39.673Z,6.57
2022-09-02T03:24:14.148Z,6.50
2022-09-02T03:26:44.309Z,6.15
2022-09-02T03:29:14.896Z,10.10
2022-09-02T03:31:46.001Z,6.60
2022-09-02T03:34:15.775Z,6.40
2022-09-02T03:36:45.199Z,7.18
2022-09-02T03:39:17.956Z,7.13
2022-09-02T03:41:50.390Z,5.68
2022-09-02T03:44:20.265Z,6.22
2022-09-02T03:46:49.708Z,6.43
2022-09-02T03:49:19.093Z,6.18
2022-09-02T03:51:48.435Z,6.63
2022-09-02T03:54:21.308Z,7.82
2022-09-02T03:56:51.086Z,5.88
2022-09-02T03:59:22.683Z,7.57
2022-09-02T04:01:52.612Z,6.35
2022-09-02T04:04:23.049Z,5.53
2022-09-02T04:06:55.350Z,6.13
2022-09-02T04:09:26.413Z,5.55
2022-09-02T04:11:56.091Z,7.25
2022-09-02T04:14:27.801Z,6.13
2022-09-02T04:16:58.548Z,6.43
2022-09-02T04:19:28.068Z,6.10
2022-09-02T04:21:58.562Z,6.28
2022-09-02T04:24:31.216Z,6.10
2022-09-02T04:27:04.240Z,7.00
2022-09-02T04:29:36.353Z,6.07
2022-09-02T04:32:05.975Z,6.65
2022-09-02T04:34:35.417Z,6.20
2022-09-02T04:37:06.041Z,9.18
2022-09-02T04:39:36.835Z,7.15
2022-09-02T04:42:06.677Z,8.05
2022-09-02T04:44:37.719Z,6.47
2022-09-02T04:47:07.333Z,6.72
2022-09-02T04:49:37.645Z,5.40
2022-09-02T04:52:07.938Z,5.82
2022-09-02T04:54:40.875Z,6.10
2022-09-02T04:57:10.818Z,5.95
2022-09-02T04:59:42.002Z,6.13
2022-09-02T05:02:13.913Z,8.35
2022-09-02T05:04:44.618Z,5.25
2022-09-02T05:07:23.950Z,5.90
2022-09-02T05:10:00.452Z,6.05
2022-09-02T05:12:35.251Z,5.80
2022-09-02T05:15:08.609Z,6.00
2022-09-02T05:17:39.293Z,8.82
2022-09-02T05:20:11.389Z,5.97
2022-09-02T05:22:43.364Z,7.32
2022-09-02T05:25:15.957Z,6.10
2022-09-02T05:27:48.661Z,6.43
2022-09-02T05:30:18.097Z,5.68
2022-09-02T05:32:50.004Z,6.82
2022-09-02T05:35:20.868Z,6.18
2022-09-02T05:38:00.085Z,6.90
2022-09-02T05:40:34.350Z,8.80
2022-09-02T05:43:04.158Z,5.00
2022-09-02T05:45:35.313Z,5.05
2022-09-02T05:48:27.618Z,10.85
2022-09-02T05:50:59.535Z,5.13
2022-09-02T05:53:30.503Z,4.80
2022-09-02T05:56:06.692Z,5.57
2022-09-02T05:58:39.661Z,7.35
2022-09-02T06:01:11.684Z,6.90
2022-09-02T06:03:42.523Z,4.78
2022-09-02T06:06:12.646Z,5.38
2022-09-02T06:08:44.167Z,4.40
2022-09-02T06:11:17.038Z,4.43
2022-09-02T06:13:48.834Z,4.30
2022-09-02T06:16:23.071Z,4.57
2022-09-02T06:18:53.860Z,4.43
2022-09-02T06:21:23.796Z,5.70
2022-09-02T06:23:55.342Z,3.90
2022-09-02T06:26:27.438Z,5.78
2022-09-02T06:28:59.974Z,3.42
2022-09-02T06:31:34.577Z,3.58
2022-09-02T06:34:05.854Z,3.22
2022-09-02T06:36:35.831Z,3.70
2022-09-02T06:39:05.635Z,4.13
2022-09-02T06:41:40.178Z,4.68
2022-09-02T06:44:16.075Z,4.35
2022-09-02T06:46:53.232Z,4.05
2022-09-02T06:49:26.036Z,4.15
2022-09-02T06:51:56.771Z,3.88
2022-09-02T06:54:31.493Z,3.50
2022-09-02T06:57:16.324Z,5.28
2022-09-02T06:59:46.643Z,4.15
2022-09-02T07:05:09.446Z,8.00
2022-09-02T07:07:42.675Z,4.03
2022-09-02T07:10:16.374Z,5.13
2022-09-02T07:12:52.864Z,3.95
2022-09-02T07:15:22.171Z,4.80
2022-09-02T07:17:52.395Z,7.30
2022-09-02T07:20:30.923Z,3.78
2022-09-02T07:23:05.791Z,4.30
2022-09-02T07:25:41.195Z,4.25
2022-09-02T07:28:16.968Z,4.47
2022-09-02T07:30:47.188Z,3.65
2022-09-02T07:33:22.705Z,3.92
2022-09-02T07:35:54.202Z,3.85
2022-09-02T07:38:24.763Z,3.90
2022-09-02T07:40:56.989Z,3.97
2022-09-02T07:43:31.292Z,3.55
2022-09-02T07:46:02.138Z,4.32
2022-09-02T07:48:32.416Z,4.63
2022-09-02T07:51:04.583Z,3.97
2022-09-02T07:53:36.044Z,3.50
2022-09-02T07:56:06.232Z,3.40
2022-09-02T07:58:37.226Z,7.65
2022-09-02T08:01:07.042Z,4.13
2022-09-02T08:03:40.350Z,3.25
2022-09-02T08:06:12.335Z,6.82
2022-09-02T08:08:42.142Z,3.72
2022-09-02T08:11:12.813Z,4.45
2022-09-02T08:13:44.527Z,3.90
2022-09-02T08:16:16.633Z,4.85
2022-09-02T08:18:48.060Z,2.95
2022-09-02T08:21:17.839Z,4.00
2022-09-02T08:23:51.443Z,3.58
2022-09-02T08:26:21.522Z,5.22
2022-09-02T08:28:52.957Z,2.80
2022-09-02T08:31:22.537Z,2.85
2022-09-02T08:33:52.101Z,3.35
2022-09-02T08:36:21.532Z,3.85
2022-09-02T08:38:50.921Z,5.35
2022-09-02T08:41:27.629Z,6.47
2022-09-02T08:44:05.144Z,3.42
2022-09-02T08:46:36.039Z,3.33
2022-09-02T08:49:10.169Z,4.75
2022-09-02T08:51:53.507Z,5.60
2022-09-02T08:54:31.096Z,4.82
2022-09-02T08:57:00.624Z,3.30
2022-09-02T08:59:32.942Z,2.95
2022-09-02T09:02:17.615Z,3.03
2022-09-02T09:05:18.266Z,3.58
2022-09-02T09:08:02.527Z,2.53
2022-09-02T09:10:41.095Z,6.28
2022-09-02T09:13:37.208Z,3.53
2022-09-02T09:16:22.640Z,3.25
2022-09-02T09:19:03.819Z,3.00
2022-09-02T09:21:35.529Z,2.72
2022-09-02T09:24:27.830Z,2.42
2022-09-02T09:26:57.903Z,8.30
2022-09-02T09:29:27.315Z,3.05
2022-09-02T09:32:01.559Z,2.30
2022-09-02T09:35:00.122Z,2.50
2022-09-02T09:37:38.935Z,3.38
2022-09-02T09:40:32.737Z,2.58
2022-09-02T09:43:15.938Z,2.70
2022-09-02T09:45:47.949Z,1.80
2022-09-02T09:48:27.780Z,3.13
2022-09-02T09:51:16.000Z,2.58
2022-09-02T09:53:45.872Z,2.67
2022-09-02T09:56:37.347Z,1.92
2022-09-02T09:59:10.772Z,2.17
2022-09-02T10:01:40.178Z,3.47
2022-09-02T10:04:39.153Z,2.17
2022-09-02T10:07:04.196Z,2.70
2022-09-02T10:09:40.060Z,1.70
2022-09-02T10:12:12.507Z,2.97
2022-09-02T10:14:46.880Z,3.63
2022-09-02T10:17:36.743Z,2.80
2022-09-02T10:20:18.129Z,3.40
2022-09-02T10:23:21.851Z,1.87
2022-09-02T10:26:07.299Z,3.00
2022-09-02T10:29:20.653Z,3.30
2022-09-02T10:32:01.610Z,5.50
2022-09-02T10:34:40.302Z,6.27
2022-09-02T10:37:19.564Z,2.00
2022-09-02T10:40:09.597Z,2.10
2022-09-02T10:42:54.255Z,3.08
2022-09-02T10:45:32.720Z,1.87
2022-09-02T10:48:31.506Z,2.23
2022-09-02T10:51:08.203Z,2.30
2022-09-02T10:54:03.737Z,2.37
2022-09-02T10:56:39.749Z,2.83
2022-09-02T10:59:15.917Z,3.17
2022-09-02T11:01:53.097Z,2.30
2022-09-02T11:04:32.609Z,3.83
2022-09-02T11:07:06.108Z,4.03
2022-09-02T11:09:43.037Z,2.77
2022-09-02T11:12:18.487Z,1.87
2022-09-02T11:15:01.832Z,4.30
2022-09-02T11:17:39.784Z,7.03
2022-09-02T11:20:18.038Z,2.60
2022-09-02T11:22:56.298Z,2.43
2022-09-02T11:25:36.132Z,2.47
2022-09-02T11:28:22.795Z,2.20
2022-09-02T11:31:00.897Z,2.90
2022-09-02T11:33:41.638Z,2.27
2022-09-02T11:36:12.198Z,1.70
2022-09-02T11:38:48.720Z,2.17
2022-09-02T11:41:38.206Z,2.13
2022-09-02T11:44:32.988Z,1.73
2022-09-02T11:47:33.528Z,4.43
2022-09-02T11:50:25.992Z,1.73
2022-09-02T11:53:13.605Z,1.93
2022-09-02T11:55:47.408Z,1.90
2022-09-02T12:01:29.757Z,4.00
2022-09-02T12:04:56.020Z,2.13
2022-09-02T12:07:26.608Z,3.13
2022-09-02T12:09:59.879Z,2.73
2022-09-02T12:13:08.360Z,2.00
2022-09-02T12:15:40.691Z,4.00
2022-09-02T12:18:31.037Z,2.30
2022-09-02T12:21:16.278Z,2.20
2022-09-02T12:24:27.253Z,1.90
2022-09-02T12:27:25.099Z,2.60
2022-09-02T12:29:55.698Z,2.00
2022-09-02T12:33:13.374Z,3.30
2022-09-02T12:35:58.352Z,7.13
2022-09-02T12:38:34.148Z,6.50
2022-09-02T12:41:27.601Z,2.43
2022-09-02T12:44:22.378Z,2.45
2022-09-02T12:47:07.657Z,2.95
2022-09-02T12:49:49.595Z,2.47
2022-09-02T12:52:49.533Z,2.10
2022-09-02T12:55:25.759Z,2.63
2022-09-02T12:58:10.326Z,2.97
2022-09-02T13:00:58.794Z,1.63
2022-09-02T13:04:22.526Z,1.70
2022-09-02T13:07:49.159Z,2.10
2022-09-02T13:11:15.641Z,2.53
2022-09-02T13:14:32.353Z,1.93
2022-09-02T13:17:41.249Z,2.07
2022-09-02T13:20:56.280Z,2.10
2022-09-02T13:24:40.749Z,2.50
2022-09-02T13:27:55.948Z,2.30
2022-09-02T13:30:40.332Z,4.63
2022-09-02T13:33:11.758Z,4.07
2022-09-02T13:35:42.632Z,1.70
2022-09-02T13:38:16.430Z,2.80
2022-09-02T13:40:48.208Z,1.90
2022-09-02T13:43:26.807Z,1.90
2022-09-02T13:46:02.027Z,1.90
2022-09-02T13:48:34.105Z,2.87
2022-09-02T13:51:14.808Z,2.13
2022-09-02T13:54:18.694Z,2.90
2022-09-02T13:56:38.410Z,3.10
2022-09-02T13:59:09.077Z,2.10
2022-09-02T14:01:40.623Z,3.90
2022-09-02T14:04:15.580Z,2.63
2022-09-02T14:06:48.824Z,2.17
2022-09-02T14:09:22.620Z,2.33
2022-09-02T14:11:52.998Z,1.80
2022-09-02T14:14:26.169Z,2.27
2022-09-02T14:17:23.456Z,2.97
2022-09-02T14:19:53.375Z,2.53
2022-09-02T14:22:30.153Z,2.90
2022-09-02T14:24:59.430Z,2.20
2022-09-02T14:27:28.813Z,2.53
2022-09-02T14:30:00.197Z,1.93
2022-09-02T14:32:30.315Z,1.80
2022-09-02T14:35:22.287Z,3.50
2022-09-02T14:37:57.800Z,3.80
2022-09-02T14:40:35.472Z,2.20
2022-09-02T14:43:06.022Z,1.90
2022-09-02T14:45:36.699Z,3.20
2022-09-02T14:48:17.388Z,4.10
2022-09-02T14:50:46.789Z,4.00
2022-09-02T14:53:22.646Z,1.87
2022-09-02T14:55:54.529Z,2.83
2022-09-02T14:58:27.319Z,2.20
2022-09-02T15:01:01.292Z,3.00
2022-09-02T15:03:32.539Z,2.90
2022-09-02T15:06:01.662Z,6.03
2022-09-02T15:08:30.900Z,2.43
2022-09-02T15:11:02.080Z,2.40
2022-09-02T15:13:34.205Z,2.30
2022-09-02T15:16:05.759Z,3.33
2022-09-02T15:18:34.939Z,2.20
2022-09-02T15:21:05.268Z,2.00
2022-09-02T15:23:34.974Z,4.20
2022-09-02T15:26:05.845Z,2.53
2022-09-02T15:28:35.281Z,3.93
2022-09-02T15:31:06.287Z,2.30
2022-09-02T15:33:36.048Z,2.70
2022-09-02T15:36:09.317Z,3.03
2022-09-02T15:38:38.795Z,2.33
2022-09-02T15:41:13.819Z,2.20
2022-09-02T15:43:43.894Z,5.37
2022-09-02T15:46:27.680Z,2.10
2022-09-02T15:49:02.798Z,2.10
2022-09-02T15:51:32.894Z,3.67
2022-09-02T15:54:04.287Z,2.83
2022-09-02T15:56:35.523Z,2.50
2022-09-02T15:59:10.818Z,7.90
2022-09-02T16:01:43.694Z,2.80
2022-09-02T16:04:14.587Z,2.90
2022-09-02T16:06:47.762Z,2.30
2022-09-02T16:09:19.318Z,2.53
2022-09-02T16:11:50.465Z,2.43
2022-09-02T16:14:21.399Z,2.37
2022-09-02T16:16:54.955Z,3.40
2022-09-02T16:19:29.832Z,3.03
2022-09-02T16:21:59.594Z,5.00
2022-09-02T16:24:29.083Z,2.70
2022-09-02T16:26:58.689Z,3.03
2022-09-02T16:29:29.785Z,2.77
2022-09-02T16:32:24.521Z,5.00
2022-09-02T16:34:50.071Z,2.70
2022-09-02T16:37:19.423Z,4.07
2022-09-02T16:39:48.787Z,2.53
2022-09-02T16:42:17.964Z,2.10
2022-09-02T16:44:47.047Z,2.20
2022-09-02T16:47:22.120Z,2.87
2022-09-02T16:49:51.657Z,2.53
2022-09-02T16:52:20.792Z,2.47
2022-09-02T16:54:49.885Z,4.57
2022-09-02T16:57:19.028Z,4.47
2022-09-02T16:59:48.105Z,4.93
2022-09-02T17:02:17.263Z,2.43
2022-09-02T17:04:47.734Z,2.20
2022-09-02T17:07:16.853Z,2.83
2022-09-02T17:09:46.086Z,4.10
2022-09-02T17:12:15.137Z,3.33
2022-09-02T17:14:44.518Z,2.27
2022-09-02T17:17:17.216Z,3.10
2022-09-02T17:19:47.648Z,2.60
2022-09-02T17:22:16.679Z,2.73
2022-09-02T17:24:46.251Z,2.57
2022-09-02T17:27:16.181Z,3.60
2022-09-02T17:29:49.054Z,3.00
2022-09-02T17:32:19.419Z,5.60
2022-09-02T17:34:50.969Z,7.10
2022-09-02T17:37:21.262Z,3.20
2022-09-02T17:39:51.250Z,3.60
2022-09-02T17:42:21.444Z,2.30
2022-09-02T17:44:51.476Z,2.33
2022-09-02T17:47:23.069Z,4.10
2022-09-02T17:49:53.930Z,2.77
2022-09-02T17:52:25.818Z,2.43
2022-09-02T17:54:55.999Z,4.27
2022-09-02T17:57:42.915Z,3.10
2022-09-02T18:00:14.481Z,6.30
2022-09-02T18:03:14.014Z,3.30
2022-09-02T18:06:06.823Z,3.13
2022-09-02T18:08:48.102Z,4.40
2022-09-02T18:11:17.882Z,4.87
2022-09-02T18:13:58.487Z,2.27
2022-09-02T18:16:33.509Z,2.77
2022-09-02T18:19:16.240Z,3.97
2022-09-02T18:22:07.253Z,5.43
2022-09-02T18:24:59.994Z,3.23
2022-09-02T18:27:43.594Z,5.00
2022-09-02T18:30:27.359Z,4.00
2022-09-02T18:33:14.450Z,3.83
2022-09-02T18:35:55.701Z,2.70
2022-09-02T18:38:38.807Z,3.10
2022-09-02T18:41:24.755Z,7.03
2022-09-02T18:44:07.675Z,3.20
2022-09-02T18:46:52.831Z,4.55
2022-09-02T18:49:24.629Z,7.43
2022-09-02T18:52:00.186Z,2.85
2022-09-02T18:54:35.734Z,2.77
2022-09-02T18:57:08.667Z,3.07
2022-09-02T18:59:44.855Z,2.50
2022-09-02T19:02:26.927Z,3.78
2022-09-02T19:04:59.278Z,3.38
2022-09-02T19:07:48.274Z,3.30
2022-09-02T19:10:18.761Z,3.90
2022-09-02T19:12:47.877Z,5.20
2022-09-02T19:15:17.510Z,5.57
2022-09-02T19:17:46.883Z,4.05
2022-09-02T19:20:17.681Z,3.47
2022-09-02T19:22:52.568Z,2.92
2022-09-02T19:25:27.164Z,2.60
2022-09-02T19:28:02.309Z,4.43
2022-09-02T19:30:37.311Z,2.78
2022-09-02T19:33:09.257Z,2.42
2022-09-02T19:35:39.105Z,3.58
2022-09-02T19:38:08.602Z,9.13
2022-09-02T19:40:39.957Z,2.65
2022-09-02T19:43:12.922Z,2.60
2022-09-02T19:45:42.294Z,7.28
2022-09-02T19:48:12.364Z,4.80
2022-09-02T19:50:43.877Z,3.83
2022-09-02T19:53:22.116Z,2.50
2022-09-02T19:55:52.824Z,3.85
2022-09-02T19:58:22.266Z,5.38
2022-09-02T20:00:53.822Z,6.63
2022-09-02T20:03:23.008Z,2.75
2022-09-02T20:05:52.850Z,2.58
2022-09-02T20:08:24.420Z,2.45
2022-09-02T20:10:57.309Z,4.28
2022-09-02T20:13:28.162Z,2.95
2022-09-02T20:15:59.382Z,3.80
2022-09-02T20:18:29.223Z,4.30
2022-09-02T20:21:00.837Z,7.70
2022-09-02T20:23:33.563Z,2.67
2022-09-02T20:26:23.356Z,3.75
2022-09-02T20:29:09.110Z,2.78
2022-09-02T20:31:55.731Z,2.30
2022-09-02T20:34:44.141Z,2.90
2022-09-02T20:37:27.633Z,2.95
2022-09-02T20:40:23.332Z,3.40
2022-09-02T20:43:32.407Z,3.35
2022-09-02T20:46:14.480Z,6.13
2022-09-02T20:49:02.665Z,7.00
2022-09-02T20:51:42.031Z,3.85
2022-09-02T20:54:25.399Z,5.63
2022-09-02T20:57:06.882Z,5.90
2022-09-02T20:59:51.107Z,4.60
2022-09-02T21:02:26.887Z,4.05
2022-09-02T21:05:01.730Z,3.95
2022-09-02T21:07:45.471Z,3.40
2022-09-02T21:10:23.593Z,5.10
2022-09-02T21:12:59.238Z,4.07
2022-09-02T21:15:34.723Z,4.10
2022-09-02T21:18:16.062Z,2.92
2022-09-02T21:20:50.419Z,3.45
2022-09-02T21:23:28.374Z,2.58
2022-09-02T21:26:00.971Z,4.22
2022-09-02T21:28:37.540Z,4.10
2022-09-02T21:31:16.093Z,2.50
2022-09-02T21:33:46.577Z,2.78
2022-09-02T21:36:28.357Z,3.15
2022-09-02T21:39:03.974Z,3.13
2022-09-02T21:41:37.754Z,3.65
2022-09-02T21:44:15.522Z,3.40
2022-09-02T21:47:01.289Z,2.42
2022-09-02T21:49:49.417Z,3.75
2022-09-02T21:52:33.642Z,3.30
2022-09-02T21:55:13.750Z,3.30
2022-09-02T21:58:15.810Z,2.67
2022-09-02T22:00:50.465Z,3.28
2022-09-02T22:03:37.048Z,3.90
2022-09-02T22:06:14.304Z,2.63
2022-09-02T22:08:50.467Z,5.93
2022-09-02T22:11:32.548Z,3.35
2022-09-02T22:14:09.041Z,4.97
2022-09-02T22:16:51.032Z,2.78
2022-09-02T22:19:28.082Z,2.83
2022-09-02T22:22:04.570Z,3.33
2022-09-02T22:24:37.195Z,3.95
2022-09-02T22:27:12.943Z,5.20
2022-09-02T22:29:47.707Z,5.30
2022-09-02T22:32:20.454Z,3.03
2022-09-02T22:35:00.650Z,3.10
2022-09-02T22:37:40.032Z,2.55
2022-09-02T22:40:14.879Z,3.00
2022-09-02T22:42:47.201Z,2.90
2022-09-02T22:45:38.241Z,2.90
2022-09-02T22:48:30.992Z,2.63
2022-09-02T22:51:25.433Z,3.83
2022-09-02T22:53:54.681Z,3.88
2022-09-02T22:56:36.311Z,2.60
2022-09-02T22:59:29.299Z,3.42
2022-09-02T23:02:12.496Z,8.85
2022-09-02T23:05:04.719Z,3.10
2022-09-02T23:07:35.170Z,4.78
2022-09-02T23:10:18.917Z,2.95
2022-09-02T23:12:56.097Z,4.00
2022-09-02T23:15:32.890Z,2.88
2022-09-02T23:18:10.474Z,3.05
2022-09-02T23:20:48.319Z,4.68
2022-09-02T23:23:38.790Z,4.28
2022-09-02T23:26:33.110Z,4.32
2022-09-02T23:29:18.759Z,3.45
2022-09-02T23:32:39.642Z,4.25
2022-09-02T23:35:21.398Z,3.55
2022-09-02T23:38:10.235Z,3.92
2022-09-02T23:40:44.612Z,3.08
2022-09-02T23:43:16.566Z,4.75
2022-09-02T23:45:47.324Z,3.95
2022-09-02T23:48:39.629Z,3.20
2022-09-02T23:51:19.286Z,3.65
2022-09-02T23:54:09.838Z,2.63
2022-09-02T23:57:02.651Z,2.65
